Violet, Texas
Current Conditions -  °F | °C
As of 12:55 PM on Sunday 23 Nov 2014 (Local Time) from KRBO Reporting Station
Clear Clear  
Wind Chill: 79°   Ceiling: Unl
Heat Index: 80°   Visibility: 10mi
Dew Point: 61°   Wind: 8mph
Humidity: 53%   Direction: 230°SW
Pressure: 29.67"   Gusts: NA
Location:  27.7757°N, 97.7554°W
Report Text: KRBO 231855Z AUTO 23007KT 10SM CLR 26/16 A2967 RMK AO2 T02620159
Loading
Personal Weather Stations






























Interactive Weather Map New forecast layout! Learn more

10-Day Weather Forecast

Advertisements
Track Severe Weather on mobile